Latest Weather Observations for Centre Island

IDD60801

Issued at 3:05 pm CST Thursday 24 April 2014 (issued every 30 minutes, with the page automatically refreshed every 10 minutes)

About weather observations | Map of weather stations | Latest weather observations for NT | Other Formats
Station Details ID: 014703 Name: CENTRE ISLAND Lat: -15.74 Lon: 136.82 Height: 12.2 m
Data from the previous 72 hours. | See also: Recent months at Centre Island
Date/Time
CST
Temp
°C
App
Temp
°C
Dew
Point
Rel
Hum
%
Delta-T
°C
Wind Press
QNH
hPa
Press
MSL
hPa
Rain
since 9 am
mm
Dir
 
Spd
km/h
Gust
km/h
Spd
kts
Gust
kts
24/03:00pm 25.3 27.7 24.3 94 0.7 ENE 19 24 10 13 1007.4 1007.3 11.2
24/02:30pm 25.2 25.5 24.3 95 0.6 E 30 35 16 19 1007.7 - 11.0
24/02:00pm 25.3 25.3 24.4 95 0.6 ESE 32 41 17 22 1007.5 - 10.0
24/01:30pm 25.2 27.4 24.3 95 0.6 E 20 24 11 13 1008.1 - 8.6
24/01:00pm 25.2 27.0 24.2 94 0.7 E 22 28 12 15 1008.4 - 5.8
24/12:30pm 25.2 25.9 24.3 95 0.6 E 28 33 15 18 1008.6 - 5.8
24/12:00pm 24.9 26.6 24.0 95 0.6 ENE 22 30 12 16 1009.1 1009.0 4.4
24/11:30am 25.7 26.2 23.9 90 1.2 E 28 43 15 23 1009.6 - 2.0
24/11:00am 25.9 26.6 24.3 91 1.1 E 28 35 15 19 1009.9 - 2.0
24/10:30am 25.7 26.7 24.7 94 0.7 ESE 28 33 15 18 1009.8 - 2.0
24/10:00am 25.4 25.2 24.4 94 0.7 E 33 39 18 21 1009.8 - 2.0
24/09:30am 25.2 23.9 23.8 92 1.0 E 37 46 20 25 1009.8 - 0.2
24/09:28am 25.4 24.2 24.0 92 1.0 E 37 46 20 25 1009.8 - 0.2
24/09:00am 25.4 25.3 24.2 93 0.8 SE 32 37 17 20 1009.6 1009.5 38.2
24/08:30am 25.5 24.6 24.5 94 0.7 SE 37 43 20 23 1009.2 - 38.2
24/08:00am 25.4 25.4 24.4 94 0.7 SE 32 43 17 23 1008.9 - 38.2
24/07:30am 24.8 24.5 23.8 94 0.7 SE 32 35 17 19 1008.5 - 38.2
24/07:00am 24.5 23.5 23.6 95 0.6 SE 35 41 19 22 1008.3 - 38.0
24/06:30am 24.2 23.0 23.3 95 0.6 ESE 35 41 19 22 1008.0 - 37.8
24/06:00am 24.3 23.2 23.4 95 0.6 SE 35 41 19 22 1007.6 1007.5 37.0
24/05:30am 24.7 23.9 23.1 91 1.1 ESE 32 37 17 20 1007.3 - 36.2
24/05:00am 24.6 22.7 22.8 90 1.2 SE 37 44 20 24 1007.2 - 36.2
24/04:30am 24.3 22.8 22.7 91 1.1 SE 35 43 19 23 1006.9 - 36.2
24/04:00am 24.4 22.5 22.8 91 1.1 SE 37 43 20 23 1007.2 - 36.2
24/03:30am 24.2 22.5 22.5 90 1.1 SE 35 41 19 22 1007.2 - 36.2
24/03:00am 24.3 22.3 22.6 90 1.1 SE 37 44 20 24 1007.1 1007.0 36.2
24/02:30am 24.4 22.4 22.5 89 1.3 SE 37 44 20 24 1007.4 - 36.2
24/02:00am 24.5 22.4 22.4 88 1.4 SE 37 44 20 24 1007.9 - 36.2
24/01:30am 24.4 22.3 22.3 88 1.4 SSE 37 46 20 25 1008.4 - 36.2
24/01:00am 24.7 22.5 22.8 89 1.3 SE 39 46 21 25 1009.0 - 36.2
24/12:30am 24.4 22.7 22.5 89 1.3 SSE 35 43 19 23 1009.3 - 36.2
24/12:00am 24.4 22.4 22.5 89 1.3 SE 37 44 20 24 1009.6 1009.5 36.2
 
Date/Time
CST
Temp
°C
App
Temp
°C
Dew
Point
Rel
Hum
%
Delta-T
°C
Wind Press
QNH
hPa
Press
MSL
hPa
Rain
since 9 am
mm
Dir
 
Spd
km/h
Gust
km/h
Spd
kts
Gust
kts
23/11:30pm 24.4 22.4 22.5 89 1.3 SE 37 44 20 24 1010.1 - 36.2
23/11:00pm 24.4 22.0 22.5 89 1.3 SE 39 44 21 24 1010.3 - 36.2
23/10:30pm 24.8 22.6 22.9 89 1.3 SE 39 46 21 25 1010.1 - 36.2
23/10:00pm 25.2 23.3 23.4 90 1.2 SE 39 44 21 24 1010.1 - 36.2
23/09:30pm 25.5 22.9 23.6 89 1.3 ESE 43 48 23 26 1010.2 - 36.2
23/09:00pm 25.3 22.8 23.7 91 1.1 ESE 43 50 23 27 1010.2 1010.1 36.2
23/08:30pm 25.2 23.5 23.8 92 1.0 ESE 39 46 21 25 1010.1 - 36.2
23/08:00pm 25.1 23.0 23.7 92 1.0 SE 41 46 22 25 1009.9 - 36.2
23/07:30pm 24.9 23.7 23.9 94 0.7 ESE 37 43 20 23 1009.7 - 36.2
23/07:00pm 24.6 22.5 23.7 95 0.6 SE 41 50 22 27 1009.3 - 36.2
23/06:30pm 24.9 22.9 23.9 94 0.7 SE 41 46 22 25 1009.0 - 34.8
23/06:00pm 25.0 24.5 23.8 93 0.8 SE 33 39 18 21 1008.9 1008.8 34.6
23/05:30pm 25.1 24.6 23.9 93 0.8 ESE 33 43 18 23 1008.9 - 34.4
23/05:00pm 25.1 24.2 23.9 93 0.8 SE 35 43 19 23 1008.6 - 34.0
23/04:30pm 25.0 22.7 23.4 91 1.1 SE 41 46 22 25 1008.4 - 34.0
23/04:00pm 24.7 22.6 23.8 95 0.6 SE 41 46 22 25 1008.2 - 34.0
23/03:30pm 24.7 22.2 24.0 96 0.5 SE 44 52 24 28 1008.5 - 33.8
23/03:00pm 24.6 22.1 24.1 97 0.3 SSE 44 54 24 29 1008.2 1008.1 32.4
23/02:30pm 24.7 21.5 24.2 97 0.3 SE 48 56 26 30 1008.3 - 28.4
23/02:00pm 24.7 21.5 24.2 97 0.3 SE 48 57 26 31 1008.3 - 24.8
23/01:30pm 25.1 23.0 24.6 97 0.3 SE 44 52 24 28 1008.6 - 21.4
23/01:00pm 25.0 22.8 24.5 97 0.3 SE 44 57 24 31 1009.0 - 17.2
23/12:30pm 24.7 21.8 24.0 96 0.5 SE 46 56 25 30 1009.1 - 11.0
23/12:00pm 25.2 23.1 24.3 95 0.6 SE 43 48 23 26 1009.4 1009.3 6.4
23/11:30am 25.4 22.7 24.4 94 0.7 SE 46 54 25 29 1010.1 - 4.8
23/11:00am 25.2 25.1 24.2 94 0.7 ESE 32 39 17 21 1010.9 - 4.6
23/10:30am 25.2 23.4 24.2 94 0.7 ESE 41 54 22 29 1011.4 - 4.6
23/10:22am 25.0 23.1 24.1 95 0.6 ESE 41 54 22 29 1011.5 - 4.4
23/10:00am 25.2 25.6 24.5 96 0.5 E 30 35 16 19 1011.7 - 2.6
23/09:30am 25.0 24.8 24.1 95 0.6 ESE 32 35 17 19 1011.5 - 0.6
23/09:00am 24.9 22.0 24.0 95 0.6 ESE 46 61 25 33 1011.1 1011.0 60.8
23/08:30am 25.5 23.1 24.8 96 0.5 SE 46 57 25 31 1010.5 - 59.4
23/08:00am 25.3 21.0 24.8 97 0.3 SE 56 65 30 35 1010.1 - 55.2
23/07:54am 25.3 20.3 24.6 96 0.5 SE 59 65 32 35 1009.9 - 54.8
23/07:30am 25.1 24.2 24.4 96 0.5 SE 37 50 20 27 1010.3 - 49.2
23/07:00am 24.8 25.8 24.1 96 0.5 ESE 26 32 14 17 1010.1 - 47.6
23/06:30am 25.0 27.4 24.3 96 0.5 SE 19 26 10 14 1010.2 - 44.6
23/06:00am 24.4 26.5 23.7 96 0.5 ESE 19 24 10 13 1010.0 1009.9 41.4
23/05:30am 24.8 26.1 24.1 96 0.5 ESE 24 28 13 15 1009.7 - 35.8
23/05:00am 24.9 27.1 24.2 96 0.5 ESE 20 24 11 13 1009.3 - 33.0
23/04:30am 24.6 25.7 23.7 95 0.6 E 24 30 13 16 1009.1 - 25.2
23/04:00am 24.5 24.0 23.5 94 0.7 E 32 39 17 21 1009.1 - 14.0
23/03:30am 25.2 24.8 23.1 88 1.4 ESE 30 39 16 21 1008.9 - 7.6
23/03:00am 26.2 28.3 24.1 88 1.4 S 20 24 11 13 1008.7 1008.6 7.6
23/02:30am 26.8 29.7 23.9 84 2.0 E 15 17 8 9 1008.8 - 7.6
23/02:00am 26.9 28.9 24.0 84 2.0 E 20 24 11 13 1009.5 - 7.6
23/01:30am 27.0 28.5 24.3 85 1.9 E 24 28 13 15 1009.9 - 7.6
23/01:00am 26.8 27.8 24.1 85 1.9 E 26 32 14 17 1010.1 - 7.6
23/12:30am 26.5 28.5 24.0 86 1.7 E 20 26 11 14 1010.3 - 7.6
23/12:00am 26.7 28.0 24.0 85 1.9 E 24 32 13 17 1010.4 1010.3 7.6
 
Date/Time
CST
Temp
°C
App
Temp
°C
Dew
Point
Rel
Hum
%
Delta-T
°C
Wind Press
QNH
hPa
Press
MSL
hPa
Rain
since 9 am
mm
Dir
 
Spd
km/h
Gust
km/h
Spd
kts
Gust
kts
22/11:30pm 26.8 28.3 24.3 86 1.7 E 24 28 13 15 1010.5 - 7.6
22/11:00pm 26.8 28.6 24.3 86 1.7 ENE 22 30 12 16 1010.7 - 7.6
22/10:30pm 26.9 27.3 24.4 86 1.7 E 30 35 16 19 1010.8 - 7.6
22/10:00pm 27.0 26.9 24.6 87 1.7 E 33 39 18 21 1010.6 - 7.6
22/09:30pm 26.8 27.5 24.3 86 1.7 E 28 35 15 19 1010.6 - 7.6
22/09:00pm 26.7 27.9 24.5 88 1.5 E 26 32 14 17 1010.9 1010.8 7.6
22/08:30pm 26.6 27.9 24.1 86 1.7 E 24 28 13 15 1010.9 - 7.6
22/08:00pm 26.2 28.0 24.2 89 1.4 E 22 28 12 15 1011.2 - 7.6
22/07:30pm 25.5 26.2 23.6 89 1.3 ESE 26 32 14 17 1011.3 - 7.6
22/07:00pm 25.1 25.8 23.7 92 1.0 ESE 26 30 14 16 1011.1 - 7.2
22/06:30pm 25.3 24.5 23.4 89 1.3 ESE 33 39 18 21 1011.1 - 6.2
22/06:00pm 25.5 25.5 23.7 90 1.2 E 30 35 16 19 1011.0 1010.9 5.6
22/05:30pm 26.1 25.0 24.1 89 1.4 E 37 44 20 24 1010.9 - 5.4
22/05:00pm 26.8 25.9 24.5 87 1.6 E 37 48 20 26 1010.5 - 5.2
22/04:30pm 27.5 26.1 24.3 83 2.2 E 39 46 21 25 1010.0 - 5.0
22/04:00pm 27.5 27.0 23.9 81 2.5 E 33 41 18 22 1009.8 - 5.0
22/03:30pm 27.2 26.5 24.1 83 2.1 E 35 41 19 22 1009.5 - 5.0
22/03:00pm 26.7 26.4 22.5 78 2.8 E 28 37 15 20 1009.4 1009.3 5.0
22/02:30pm 26.4 24.3 23.1 82 2.2 E 39 50 21 27 1010.2 - 5.0
22/02:00pm 25.9 24.1 23.6 87 1.6 E 39 46 21 25 1010.4 - 5.0
22/01:30pm 26.8 24.8 23.3 81 2.4 ENE 39 50 21 27 1010.6 - 4.4
22/01:29pm 26.9 25.3 23.2 80 2.5 ENE 37 50 20 27 1010.6 - 4.4
22/01:00pm 27.5 26.7 23.1 77 3.0 E 32 37 17 20 1010.6 - 4.4
22/12:30pm 27.3 25.1 23.5 80 2.6 E 41 54 22 29 1011.1 - 3.8
22/12:26pm 27.8 27.3 23.8 79 2.8 ESE 33 54 18 29 1011.1 - 3.8
22/12:25pm 28.1 27.8 23.9 78 2.9 ESE 32 48 17 26 1011.1 - 3.8
22/12:00pm 27.9 31.5 26.5 92 1.0 E 20 28 11 15 1011.6 1011.5 3.8
22/11:30am 25.9 26.7 24.5 92 1.0 E 28 39 15 21 1012.3 - 3.4
22/11:00am 29.6 31.4 24.2 73 3.8 ESE 22 28 12 15 1012.7 - 0.0
22/10:30am 29.1 29.7 22.1 66 4.7 ESE 22 28 12 15 1012.9 - 0.0
22/10:00am 29.4 28.3 21.1 61 5.5 ESE 28 32 15 17 1013.0 - 0.0
22/09:30am 29.0 27.2 19.6 57 6.1 ESE 28 33 15 18 1013.0 - 0.0
22/09:00am 28.5 27.4 19.4 57 5.9 SE 24 28 13 15 1012.6 1012.5 1.6
22/08:30am 27.8 26.2 19.1 59 5.6 SE 26 30 14 16 1012.4 - 1.6
22/08:00am 27.5 25.9 19.3 61 5.3 SE 26 30 14 16 1012.1 - 1.6
22/07:30am 26.8 26.6 20.6 69 4.1 SSE 22 26 12 14 1011.7 - 1.6
22/07:00am 26.2 26.0 20.5 71 3.7 SSE 22 24 12 13 1011.4 - 1.6
22/06:30am 25.7 25.0 20.3 72 3.5 SSE 24 26 13 14 1011.3 - 1.6
22/06:00am 25.8 25.7 20.8 74 3.3 SSE 22 26 12 14 1011.1 1011.0 1.6
22/05:30am 25.9 26.3 20.9 74 3.3 SSE 20 26 11 14 1011.0 - 1.6
22/05:00am 25.9 26.5 21.3 76 3.0 SSE 20 24 11 13 1010.9 - 1.6
22/04:30am 26.2 26.8 21.4 75 3.2 SSE 20 24 11 13 1010.8 - 1.6
22/04:00am 26.5 27.1 21.3 73 3.4 SE 20 24 11 13 1010.6 - 1.6
22/03:30am 26.5 27.5 21.7 75 3.2 SSE 19 22 10 12 1010.7 - 1.6
22/03:00am 26.5 27.7 22.1 77 3.0 SSE 19 22 10 12 1010.7 1010.6 1.6
22/02:30am 26.8 27.9 22.4 77 3.0 SE 20 22 11 12 1010.8 - 1.6
22/02:00am 26.9 28.4 22.7 78 2.8 SE 19 22 10 12 1010.9 - 1.6
22/01:30am 26.8 28.5 22.4 77 3.0 SE 17 20 9 11 1011.3 - 1.6
22/01:00am 27.2 29.0 22.6 76 3.1 SE 17 20 9 11 1011.5 - 1.6
22/12:30am 27.2 29.2 22.2 74 3.4 SE 15 17 8 9 1011.7 - 1.6
22/12:00am 27.3 28.7 21.8 72 3.7 SE 17 20 9 11 1012.0 1011.9 1.6
 
Date/Time
CST
Temp
°C
App
Temp
°C
Dew
Point
Rel
Hum
%
Delta-T
°C
Wind Press
QNH
hPa
Press
MSL
hPa
Rain
since 9 am
mm
Dir
 
Spd
km/h
Gust
km/h
Spd
kts
Gust
kts
21/11:30pm 27.9 29.1 22.1 70 3.9 SE 19 22 10 12 1012.1 - 1.6
21/11:00pm 28.3 29.3 22.1 69 4.2 ESE 20 24 11 13 1012.1 - 1.6
21/10:30pm 28.3 28.2 20.8 63 5.0 ESE 22 26 12 14 1012.2 - 1.6
21/10:00pm 28.2 28.5 20.7 63 5.0 E 20 26 11 14 1012.3 - 1.6
21/09:30pm 28.2 28.6 21.0 65 4.8 E 20 24 11 13 1012.5 - 1.6
21/09:00pm 28.3 28.6 20.8 63 5.0 E 20 24 11 13 1012.6 1012.5 1.6
21/08:30pm 28.3 28.2 20.8 63 5.0 E 22 30 12 16 1012.4 - 1.6
21/08:00pm 28.4 28.2 21.2 65 4.8 E 24 28 13 15 1012.1 - 1.6
21/07:30pm 28.5 28.1 21.0 64 5.0 E 24 30 13 16 1012.0 - 1.6
21/07:00pm 28.6 28.5 21.4 65 4.8 E 24 30 13 16 1011.8 - 1.6
21/06:30pm 28.8 27.7 21.0 62 5.2 E 28 35 15 19 1011.6 - 1.6
21/06:00pm 29.0 27.8 21.5 64 5.0 E 30 35 16 19 1011.3 1011.2 1.6
21/05:30pm 29.5 28.6 21.4 61 5.4 E 28 35 15 19 1011.2 - 1.6
21/05:00pm 30.2 29.9 21.8 60 5.7 E 26 33 14 18 1010.9 - 1.6
21/04:30pm 30.7 30.0 21.8 59 6.0 E 28 33 15 18 1010.7 - 1.6
21/04:00pm 31.2 30.8 21.7 57 6.4 E 26 33 14 18 1010.7 - 1.6
21/03:30pm 31.7 30.8 21.5 54 6.9 E 28 32 15 17 1010.5 - 1.6

Other Formats:

Comma delimited format used in spreadsheet applications
http://www.bom.gov.au/fwo/IDD60801/IDD60801.94248.axf

JavaScript Object Notation format (JSON) in row-major order
http://www.bom.gov.au/fwo/IDD60801/IDD60801.94248.json